Time;durP1;ratioP1;P1;durP2;ratioP2;P2;SDS_P1;SDS_P2;PMS_P1;PMS_P2;Temp;Humidity;BMP_temperature;BMP_pressure;BME280_temperature;BME280_humidity;BME280_pressure;Samples;Min_cycle;Max_cycle;Signal;HPM_P1;HPM_P2
2023/04/02 00:02:25;;;;;;;8.27;7.35;;;7.70;93.00;;;;;;5089379;28;20067;-66
2023/04/02 00:05:16;;;;;;;8.48;7.32;;;7.80;93.00;;;;;;5071138;28;20025;-66
2023/04/02 00:07:47;;;;;;;8.60;7.20;;;7.80;92.80;;;;;;5071714;28;20097;-67
2023/04/02 00:10:33;;;;;;;8.75;7.47;;;7.70;92.80;;;;;;5082383;28;20020;-66
2023/04/02 00:13:30;;;;;;;7.15;6.45;;;7.70;92.80;;;;;;5087220;28;20032;-68
2023/04/02 00:15:58;;;;;;;8.63;6.57;;;7.70;93.00;;;;;;5085934;28;20029;-67
2023/04/02 00:18:25;;;;;;;6.90;6.20;;;7.70;92.70;;;;;;5072291;28;20166;-67
2023/04/02 00:21:24;;;;;;;8.55;6.57;;;7.70;92.70;;;;;;5091051;28;20028;-67
2023/04/02 00:23:53;;;;;;;6.63;5.80;;;7.70;92.70;;;;;;5076944;28;20036;-68
2023/04/02 00:26:20;;;;;;;7.75;6.82;;;7.80;92.60;;;;;;5077660;28;20024;-67
2023/04/02 00:28:46;;;;;;;8.13;7.25;;;7.70;92.50;;;;;;5089443;28;20024;-67
2023/04/02 00:31:12;;;;;;;7.70;6.90;;;7.80;92.60;;;;;;5081051;28;20020;-67
2023/04/02 00:33:37;;;;;;;9.02;7.40;;;7.80;92.50;;;;;;5086655;28;20478;-67
2023/04/02 00:36:06;;;;;;;9.35;7.65;;;7.70;92.40;;;;;;5088744;28;20028;-67
2023/04/02 00:38:34;;;;;;;8.90;7.13;;;7.70;92.40;;;;;;5071912;28;20642;-67
2023/04/02 00:41:03;;;;;;;6.75;6.05;;;7.70;92.50;;;;;;5079765;28;20028;-68
2023/04/02 00:43:31;;;;;;;7.75;6.95;;;7.70;92.50;;;;;;5084048;28;20031;-67
2023/04/02 00:46:02;;;;;;;10.35;8.30;;;7.80;92.50;;;;;;5073600;28;20029;-66
2023/04/02 00:48:31;;;;;;;8.75;6.82;;;7.70;92.30;;;;;;5083088;28;20043;-66
2023/04/02 00:51:00;;;;;;;8.13;7.10;;;7.70;92.30;;;;;;5080054;28;20449;-66
2023/04/02 00:53:30;;;;;;;8.40;7.32;;;7.70;92.40;;;;;;5077426;28;20032;-67
2023/04/02 00:55:57;;;;;;;8.30;6.90;;;7.70;92.40;;;;;;5078443;28;20044;-66
2023/04/02 00:58:31;;;;;;;7.10;6.18;;;7.70;92.30;;;;;;5088283;28;20099;-66
2023/04/02 01:00:58;;;;;;;8.52;6.35;;;7.70;92.30;;;;;;5082270;28;20029;-66
2023/04/02 01:03:33;;;;;;;8.90;7.53;;;7.60;92.40;;;;;;5074722;28;20031;-67
2023/04/02 01:06:10;;;;;;;9.00;8.05;;;7.60;92.10;;;;;;5084698;28;20074;-67
2023/04/02 01:09:10;;;;;;;8.00;6.00;;;7.50;91.90;;;;;;5078081;28;20066;-67
2023/04/02 01:12:00;;;;;;;7.82;6.80;;;7.50;91.90;;;;;;5081231;28;20024;-67
2023/04/02 01:14:54;;;;;;;8.25;6.97;;;7.40;91.90;;;;;;5073728;28;20012;-66
2023/04/02 01:17:47;;;;;;;9.90;7.57;;;7.40;91.90;;;;;;5085542;28;20486;-66
2023/04/02 01:20:24;;;;;;;8.30;7.43;;;7.40;92.00;;;;;;5086035;28;20016;-66
2023/04/02 01:22:50;;;;;;;8.73;7.38;;;7.40;92.00;;;;;;5072859;28;20029;-66
2023/04/02 01:25:38;;;;;;;7.95;6.55;;;7.40;91.90;;;;;;5075182;28;20092;-66
2023/04/02 01:28:18;;;;;;;7.55;6.70;;;7.40;91.90;;;;;;5083010;28;20384;-66
2023/04/02 01:30:48;;;;;;;7.32;5.90;;;7.30;91.80;;;;;;5080916;28;20024;-65
2023/04/02 01:33:14;;;;;;;7.10;6.05;;;7.30;91.80;;;;;;5083701;28;20061;-65
2023/04/02 01:35:45;;;;;;;7.45;6.50;;;7.30;91.80;;;;;;5083096;28;20060;-67
2023/04/02 01:38:17;;;;;;;7.93;6.72;;;7.30;91.60;;;;;;5083006;28;20029;-67
2023/04/02 01:41:00;;;;;;;7.88;6.05;;;7.20;91.60;;;;;;5077193;28;20028;-68
2023/04/02 01:43:33;;;;;;;7.97;6.55;;;7.30;91.60;;;;;;5079799;28;20034;-66
2023/04/02 01:46:04;;;;;;;7.72;6.40;;;7.30;91.60;;;;;;5080077;28;20394;-66
2023/04/02 01:48:30;;;;;;;9.52;6.93;;;7.30;91.50;;;;;;5070749;28;20031;-67
2023/04/02 01:50:59;;;;;;;8.23;7.38;;;7.20;91.50;;;;;;5072442;28;20487;-67
2023/04/02 01:53:27;;;;;;;8.73;7.03;;;7.20;91.40;;;;;;5079988;28;20196;-67
2023/04/02 01:55:55;;;;;;;8.82;7.13;;;7.20;91.30;;;;;;5077414;28;20448;-67
2023/04/02 01:58:24;;;;;;;10.30;7.40;;;7.20;91.30;;;;;;5079950;28;20127;-67
2023/04/02 02:01:07;;;;;;;9.00;7.15;;;7.10;91.40;;;;;;5088785;28;20630;-67
2023/04/02 02:03:33;;;;;;;8.88;6.90;;;7.20;91.40;;;;;;5086522;28;20794;-67
2023/04/02 02:06:00;;;;;;;10.25;7.10;;;7.10;91.40;;;;;;5084071;28;20036;-67
2023/04/02 02:08:39;;;;;;;7.03;6.18;;;7.10;91.40;;;;;;5082239;28;20030;-67
2023/04/02 02:11:07;;;;;;;8.23;6.35;;;7.20;91.50;;;;;;5089450;28;20028;-67
2023/04/02 02:13:32;;;;;;;8.90;8.00;;;7.20;91.50;;;;;;5089626;28;20028;-67
2023/04/02 02:16:00;;;;;;;9.90;7.15;;;7.20;91.40;;;;;;5079060;28;20032;-67
2023/04/02 02:18:27;;;;;;;11.32;9.63;;;7.30;91.50;;;;;;5081144;28;20029;-68
2023/04/02 02:20:55;;;;;;;11.38;9.40;;;7.20;91.40;;;;;;5083166;28;20039;-67
2023/04/02 02:23:21;;;;;;;10.07;7.60;;;7.30;91.40;;;;;;5079287;28;20024;-67
2023/04/02 02:25:47;;;;;;;12.70;9.82;;;7.30;91.40;;;;;;5079351;28;20025;-66
2023/04/02 02:28:35;;;;;;;13.80;11.23;;;7.30;91.40;;;;;;5085918;28;20027;-67
2023/04/02 02:31:16;;;;;;;10.57;8.98;;;7.20;91.40;;;;;;5075591;28;20029;-67
2023/04/02 02:33:48;;;;;;;11.98;9.52;;;7.20;91.40;;;;;;5083012;28;20023;-68
2023/04/02 02:36:44;;;;;;;10.32;8.65;;;7.10;91.30;;;;;;5081805;28;20059;-67
2023/04/02 02:39:36;;;;;;;13.68;10.80;;;7.10;91.50;;;;;;5076801;28;20441;-67
2023/04/02 02:42:21;;;;;;;9.77;8.37;;;7.00;91.40;;;;;;5079786;28;20024;-67
2023/04/02 02:44:48;;;;;;;10.25;9.00;;;7.00;91.60;;;;;;5088643;28;20321;-67
2023/04/02 02:47:36;;;;;;;11.32;8.85;;;6.90;91.50;;;;;;5077179;28;20025;-66
2023/04/02 02:50:06;;;;;;;11.43;8.45;;;6.90;91.50;;;;;;5082155;28;20040;-66
2023/04/02 02:52:35;;;;;;;10.60;9.45;;;6.90;91.50;;;;;;5089813;28;20103;-66
2023/04/02 02:55:14;;;;;;;10.90;8.93;;;6.80;91.40;;;;;;5085413;28;20024;-66
2023/04/02 02:57:49;;;;;;;10.95;8.52;;;6.80;91.40;;;;;;5089801;28;20022;-67
2023/04/02 03:00:18;;;;;;;9.32;8.10;;;6.70;91.30;;;;;;5089460;28;20095;-66
2023/04/02 03:02:45;;;;;;;10.68;7.07;;;6.70;91.20;;;;;;5076220;28;20112;-66
2023/04/02 03:05:20;;;;;;;9.15;7.72;;;6.60;91.20;;;;;;5088209;28;20032;-67
2023/04/02 03:07:48;;;;;;;9.48;7.50;;;6.60;91.30;;;;;;5088302;28;20022;-67
2023/04/02 03:10:23;;;;;;;9.23;7.15;;;6.60;91.40;;;;;;5085929;28;20506;-66
2023/04/02 03:13:00;;;;;;;8.95;7.60;;;6.60;91.40;;;;;;5076861;28;20103;-67
2023/04/02 03:15:46;;;;;;;8.70;6.35;;;6.50;91.20;;;;;;5078704;28;20103;-66
2023/04/02 03:18:21;;;;;;;9.00;6.60;;;6.50;91.20;;;;;;5092519;28;20050;-66
2023/04/02 03:20:56;;;;;;;8.73;7.10;;;6.50;91.10;;;;;;5087164;28;20411;-66
2023/04/02 03:23:28;;;;;;;7.78;6.47;;;6.40;91.10;;;;;;5080756;28;20039;-66
2023/04/02 03:26:09;;;;;;;9.67;7.37;;;6.40;91.10;;;;;;5075555;28;20394;-65
2023/04/02 03:28:42;;;;;;;9.13;7.88;;;6.40;91.10;;;;;;5080915;28;20322;-66
2023/04/02 03:31:15;;;;;;;10.45;7.70;;;6.30;91.20;;;;;;5081175;28;20028;-66
2023/04/02 03:33:50;;;;;;;9.98;7.45;;;6.30;91.30;;;;;;5071773;28;20402;-67
2023/04/02 03:36:21;;;;;;;8.85;7.35;;;6.40;91.30;;;;;;5087524;28;20093;-66
2023/04/02 03:38:56;;;;;;;9.07;7.22;;;6.40;91.30;;;;;;5086959;28;20460;-67
2023/04/02 03:41:39;;;;;;;11.55;8.20;;;6.50;91.50;;;;;;5083865;28;20021;-66
2023/04/02 03:44:18;;;;;;;12.13;8.88;;;6.40;91.20;;;;;;5088544;28;20063;-66
2023/04/02 03:46:49;;;;;;;11.20;8.13;;;6.40;91.00;;;;;;5079534;28;20024;-66
2023/04/02 03:49:52;;;;;;;9.50;7.53;;;6.40;91.10;;;;;;5090875;28;20016;-67
2023/04/02 03:52:25;;;;;;;11.68;8.88;;;6.40;91.10;;;;;;5078580;28;20036;-66
2023/04/02 03:54:55;;;;;;;9.75;7.95;;;6.40;90.80;;;;;;5074168;28;20024;-66
2023/04/02 03:57:42;;;;;;;10.45;8.35;;;6.30;90.80;;;;;;5086702;28;20024;-66
2023/04/02 04:00:16;;;;;;;11.57;8.65;;;6.20;90.70;;;;;;5081537;28;20112;-67
2023/04/02 04:02:46;;;;;;;9.27;8.20;;;6.30;90.80;;;;;;5076466;28;20032;-66
2023/04/02 04:05:48;;;;;;;11.55;8.40;;;6.30;90.80;;;;;;5089248;28;20511;-67
2023/04/02 04:08:21;;;;;;;12.77;9.87;;;6.30;90.70;;;;;;5078993;28;20037;-67
2023/04/02 04:10:55;;;;;;;11.93;9.20;;;6.30;90.70;;;;;;5085952;28;20283;-67
2023/04/02 04:13:48;;;;;;;14.00;9.90;;;6.30;90.60;;;;;;5091781;28;20028;-67
2023/04/02 04:16:27;;;;;;;13.52;9.18;;;6.40;90.50;;;;;;5088017;28;20111;-66
2023/04/02 04:19:06;;;;;;;11.25;9.30;;;6.30;90.40;;;;;;5082315;28;20024;-67
2023/04/02 04:21:38;;;;;;;12.65;9.50;;;6.30;90.50;;;;;;5084527;28;20020;-68
2023/04/02 04:24:11;;;;;;;10.77;9.67;;;6.20;90.30;;;;;;5089227;28;20036;-67
2023/04/02 04:27:08;;;;;;;9.88;8.13;;;6.20;90.30;;;;;;5076657;28;20056;-67
2023/04/02 04:29:58;;;;;;;10.23;8.82;;;6.20;90.40;;;;;;5081628;28;20070;-67
2023/04/02 04:32:31;;;;;;;12.95;8.85;;;6.20;90.30;;;;;;5089287;28;20028;-68
2023/04/02 04:35:18;;;;;;;10.65;8.50;;;6.20;90.10;;;;;;5090415;28;20422;-68
2023/04/02 04:37:52;;;;;;;10.13;7.85;;;6.20;90.00;;;;;;5084608;28;20099;-68
2023/04/02 04:40:31;;;;;;;12.75;7.65;;;6.10;89.90;;;;;;5082969;28;20028;-68
2023/04/02 04:43:01;;;;;;;10.90;7.80;;;6.10;89.70;;;;;;5076955;28;20035;-68
2023/04/02 04:45:45;;;;;;;10.38;7.22;;;6.00;89.50;;;;;;5088459;28;20027;-68
2023/04/02 04:48:20;;;;;;;9.13;6.50;;;6.00;89.40;;;;;;5075543;28;20071;-66
2023/04/02 04:50:57;;;;;;;8.82;6.40;;;6.00;87.90;;;;;;5090948;28;20120;-66
2023/04/02 04:53:25;;;;;;;9.88;6.50;;;5.80;87.50;;;;;;5085696;28;20028;-67
2023/04/02 04:55:54;;;;;;;8.70;5.93;;;5.60;87.10;;;;;;5087349;28;20107;-66
2023/04/02 04:58:42;;;;;;;6.60;4.90;;;5.70;87.80;;;;;;5081044;28;20051;-66
2023/04/02 05:01:11;;;;;;;7.10;5.25;;;5.60;87.80;;;;;;5088959;28;20028;-67
2023/04/02 05:03:39;;;;;;;9.85;5.18;;;5.60;87.60;;;;;;5078906;28;20398;-66
2023/04/02 05:06:14;;;;;;;7.40;5.20;;;5.60;87.80;;;;;;5073856;28;20031;-67
2023/04/02 05:08:46;;;;;;;6.65;5.13;;;5.60;87.50;;;;;;5080568;28;20021;-66
2023/04/02 05:11:36;;;;;;;6.90;4.88;;;5.60;88.00;;;;;;5070583;28;20017;-66
2023/04/02 05:14:30;;;;;;;6.97;4.80;;;5.70;88.10;;;;;;5071327;28;20454;-67
2023/04/02 05:17:25;;;;;;;8.15;4.60;;;5.60;87.60;;;;;;5080581;28;20024;-68
2023/04/02 05:20:15;;;;;;;6.55;4.95;;;5.60;87.40;;;;;;5083402;28;21664;-67
2023/04/02 05:22:49;;;;;;;6.60;4.40;;;5.50;86.60;;;;;;5073957;28;20037;-67
2023/04/02 05:25:24;;;;;;;6.97;4.55;;;5.40;86.00;;;;;;5081700;28;20107;-67
2023/04/02 05:27:53;;;;;;;7.43;4.22;;;5.30;86.30;;;;;;5074668;28;20016;-67
2023/04/02 05:30:28;;;;;;;7.72;4.65;;;5.40;86.40;;;;;;5076630;28;20074;-67
2023/04/02 05:33:00;;;;;;;5.43;3.90;;;5.40;86.20;;;;;;5078177;28;20085;-68
2023/04/02 05:35:32;;;;;;;6.20;3.75;;;5.40;86.20;;;;;;5073096;28;20024;-67
2023/04/02 05:38:00;;;;;;;6.63;3.88;;;5.40;85.80;;;;;;5080570;28;20039;-66
2023/04/02 05:40:38;;;;;;;5.65;3.40;;;5.40;85.50;;;;;;5090093;28;20035;-67
2023/04/02 05:43:08;;;;;;;5.90;3.28;;;5.40;85.20;;;;;;5074099;28;20040;-67
2023/04/02 05:45:37;;;;;;;5.85;3.47;;;5.30;85.30;;;;;;5090619;28;20535;-67
2023/04/02 05:48:14;;;;;;;5.85;3.40;;;5.30;85.10;;;;;;5084790;28;20028;-67
2023/04/02 05:50:43;;;;;;;5.10;3.30;;;5.30;85.30;;;;;;5086517;28;20023;-67
2023/04/02 05:53:36;;;;;;;4.70;2.67;;;5.30;85.60;;;;;;5089601;28;20024;-67
2023/04/02 05:56:16;;;;;;;7.47;3.17;;;5.30;85.50;;;;;;5077159;28;20470;-67
2023/04/02 05:59:16;;;;;;;5.40;2.90;;;5.30;85.50;;;;;;5082194;28;20028;-68
2023/04/02 06:02:02;;;;;;;4.82;2.50;;;5.30;85.20;;;;;;5086069;28;20035;-66
2023/04/02 06:04:42;;;;;;;4.97;2.40;;;5.30;85.00;;;;;;5073354;28;20583;-67
2023/04/02 06:07:14;;;;;;;4.10;2.30;;;5.30;85.00;;;;;;5075328;28;20028;-67
2023/04/02 06:10:03;;;;;;;5.57;2.42;;;5.30;84.80;;;;;;5090750;28;20030;-67
2023/04/02 06:12:42;;;;;;;4.05;2.05;;;5.30;84.60;;;;;;5092534;28;20502;-67
2023/04/02 06:15:20;;;;;;;4.07;2.33;;;5.30;84.50;;;;;;5092121;28;20032;-67
2023/04/02 06:17:47;;;;;;;4.07;2.33;;;5.20;83.80;;;;;;5092050;28;20020;-67
2023/04/02 06:20:18;;;;;;;5.13;2.75;;;5.20;84.20;;;;;;5083512;28;20028;-67
2023/04/02 06:22:47;;;;;;;5.57;3.00;;;5.20;84.00;;;;;;5077831;28;20029;-67
2023/04/02 06:25:36;;;;;;;5.50;2.60;;;5.20;84.40;;;;;;5086612;28;20028;-68
2023/04/02 06:28:05;;;;;;;5.25;2.70;;;5.20;84.30;;;;;;5092690;28;20035;-68
2023/04/02 06:30:35;;;;;;;4.47;3.20;;;5.10;83.90;;;;;;5088655;28;20020;-68
2023/04/02 06:33:02;;;;;;;3.33;2.70;;;5.10;83.80;;;;;;5094653;28;20091;-68
2023/04/02 06:35:28;;;;;;;5.30;3.50;;;5.00;83.70;;;;;;5098948;28;20069;-68
2023/04/02 06:37:56;;;;;;;5.15;2.80;;;4.90;82.70;;;;;;5091222;28;20020;-68
2023/04/02 06:40:30;;;;;;;5.85;3.10;;;4.70;82.90;;;;;;5096402;28;20600;-68
2023/04/02 06:43:00;;;;;;;5.00;2.80;;;4.60;83.40;;;;;;5091336;28;20147;-68
2023/04/02 06:45:31;;;;;;;4.72;2.50;;;4.50;83.20;;;;;;5085327;28;20031;-68
2023/04/02 06:48:00;;;;;;;3.78;2.67;;;4.40;83.70;;;;;;5081384;28;20509;-68
2023/04/02 06:50:41;;;;;;;6.22;2.90;;;4.40;84.20;;;;;;5080294;28;20024;-68
2023/04/02 06:53:26;;;;;;;4.07;2.70;;;4.40;84.40;;;;;;5085948;28;20024;-67
2023/04/02 06:56:14;;;;;;;5.50;3.03;;;4.50;84.70;;;;;;5088200;28;20504;-68
2023/04/02 06:58:39;;;;;;;6.13;2.97;;;4.60;84.60;;;;;;5086537;28;20490;-68
2023/04/02 07:01:05;;;;;;;4.72;2.90;;;4.60;84.40;;;;;;5089119;28;20028;-67
2023/04/02 07:03:32;;;;;;;7.07;3.15;;;4.50;83.90;;;;;;5088772;28;20040;-67
2023/04/02 07:06:00;;;;;;;4.93;3.15;;;4.60;84.10;;;;;;5087170;28;20144;-67
2023/04/02 07:08:26;;;;;;;4.63;3.00;;;4.60;84.00;;;;;;5083189;28;20077;-68
2023/04/02 07:10:51;;;;;;;5.57;3.15;;;4.60;83.70;;;;;;5088666;28;20028;-68
2023/04/02 07:13:19;;;;;;;3.60;2.75;;;4.50;84.60;;;;;;5091003;28;20225;-67
2023/04/02 07:15:48;;;;;;;5.18;3.28;;;4.70;84.10;;;;;;5088939;28;20085;-67
2023/04/02 07:18:21;;;;;;;5.85;3.33;;;4.70;83.90;;;;;;5092421;28;20127;-68
2023/04/02 07:20:46;;;;;;;6.78;3.80;;;4.70;83.90;;;;;;5087086;28;20026;-68
2023/04/02 07:23:12;;;;;;;5.60;3.47;;;4.80;83.70;;;;;;5093052;28;20024;-68
2023/04/02 07:25:38;;;;;;;5.68;3.00;;;4.80;83.60;;;;;;5083098;28;20551;-68
2023/04/02 07:28:05;;;;;;;5.65;2.92;;;4.90;83.70;;;;;;5089035;28;20032;-68
2023/04/02 07:30:30;;;;;;;5.28;3.40;;;5.00;83.70;;;;;;5083786;28;20019;-67
2023/04/02 07:32:56;;;;;;;5.15;3.17;;;5.00;83.30;;;;;;5086339;28;20036;-67
2023/04/02 07:35:22;;;;;;;4.13;2.90;;;5.10;83.30;;;;;;5080657;28;20507;-67
2023/04/02 07:37:47;;;;;;;6.95;3.75;;;5.20;83.40;;;;;;5083994;28;20032;-67
2023/04/02 07:40:19;;;;;;;3.80;3.10;;;5.20;83.00;;;;;;5085306;28;20047;-67
2023/04/02 07:42:45;;;;;;;7.20;3.50;;;5.20;82.70;;;;;;5087229;28;20056;-68
2023/04/02 07:45:11;;;;;;;6.70;4.03;;;5.30;82.60;;;;;;5078599;28;20016;-68
2023/04/02 07:47:37;;;;;;;8.00;4.00;;;5.30;81.70;;;;;;5092673;28;20387;-67
2023/04/02 07:50:03;;;;;;;6.60;3.88;;;5.20;81.30;;;;;;5091741;28;20024;-67
2023/04/02 07:52:30;;;;;;;6.55;4.10;;;5.10;81.40;;;;;;5086491;28;20043;-67
2023/04/02 07:54:55;;;;;;;5.53;3.90;;;5.10;81.90;;;;;;5091302;28;20031;-67
2023/04/02 07:57:21;;;;;;;9.55;4.07;;;5.10;81.90;;;;;;5088553;28;20378;-67
2023/04/02 07:59:47;;;;;;;7.00;4.13;;;5.10;81.80;;;;;;5091391;28;20020;-67
2023/04/02 08:02:22;;;;;;;7.43;4.22;;;5.10;81.80;;;;;;5088221;28;20052;-67
2023/04/02 08:04:50;;;;;;;7.15;4.00;;;5.10;81.80;;;;;;5074408;28;20555;-67
2023/04/02 08:07:16;;;;;;;6.65;4.53;;;5.10;81.90;;;;;;5076754;28;20032;-67
2023/04/02 08:09:41;;;;;;;6.22;3.85;;;5.10;82.40;;;;;;5091495;28;20044;-67
2023/04/02 08:12:10;;;;;;;7.30;4.10;;;5.10;81.80;;;;;;5083552;28;20059;-67
2023/04/02 08:14:35;;;;;;;6.30;3.90;;;5.10;81.70;;;;;;5083997;28;20024;-67
2023/04/02 08:17:01;;;;;;;6.40;3.90;;;5.00;81.40;;;;;;5088183;28;20042;-67
2023/04/02 08:19:27;;;;;;;7.00;4.20;;;4.90;81.20;;;;;;5072172;28;20068;-67
2023/04/02 08:21:53;;;;;;;7.30;3.80;;;4.90;82.00;;;;;;5078871;28;20500;-67
2023/04/02 08:24:19;;;;;;;6.72;3.40;;;4.90;82.40;;;;;;5077553;28;20398;-67
2023/04/02 08:26:46;;;;;;;4.43;3.63;;;4.90;82.20;;;;;;5075292;28;20478;-67
2023/04/02 08:29:11;;;;;;;7.50;3.95;;;5.00;82.10;;;;;;5088934;28;20040;-67
2023/04/02 08:31:37;;;;;;;5.30;3.30;;;4.90;82.00;;;;;;5080754;28;20069;-67
2023/04/02 08:34:03;;;;;;;5.75;3.85;;;5.00;82.40;;;;;;5087457;28;20070;-67
2023/04/02 08:36:33;;;;;;;5.75;3.45;;;5.10;81.80;;;;;;5090976;28;20555;-67
2023/04/02 08:38:59;;;;;;;4.93;3.13;;;4.90;81.60;;;;;;5080775;28;20567;-67
2023/04/02 08:41:26;;;;;;;5.30;3.83;;;5.10;82.20;;;;;;5087600;28;20028;-67
2023/04/02 08:44:12;;;;;;;7.28;4.32;;;5.20;82.00;;;;;;5080493;28;20554;-67
2023/04/02 08:47:00;;;;;;;7.32;4.07;;;5.10;81.20;;;;;;5080940;28;20035;-67
2023/04/02 08:49:31;;;;;;;5.07;3.47;;;5.10;81.30;;;;;;5090198;28;20478;-67
2023/04/02 08:51:58;;;;;;;6.03;3.67;;;5.20;81.50;;;;;;5085845;28;20136;-67
2023/04/02 08:54:33;;;;;;;6.35;3.30;;;5.40;81.50;;;;;;5087607;28;20108;-67
2023/04/02 08:57:10;;;;;;;5.45;3.30;;;5.40;81.10;;;;;;5088558;28;20088;-67
2023/04/02 08:59:41;;;;;;;5.82;3.30;;;5.50;80.90;;;;;;5085210;28;20020;-67
2023/04/02 09:02:26;;;;;;;5.80;3.40;;;5.50;79.60;;;;;;5080371;28;20028;-67
2023/04/02 09:04:53;;;;;;;5.53;3.67;;;5.30;79.40;;;;;;5086691;28;20024;-67
2023/04/02 09:07:18;;;;;;;8.35;4.10;;;5.40;80.10;;;;;;5081999;28;20082;-68
2023/04/02 09:09:48;;;;;;;5.00;3.58;;;5.50;80.10;;;;;;5083072;28;20382;-68
2023/04/02 09:12:21;;;;;;;4.38;3.40;;;5.50;80.10;;;;;;5081000;28;20417;-67
2023/04/02 09:15:03;;;;;;;3.20;2.75;;;5.70;79.90;;;;;;5087980;28;20056;-68
2023/04/02 09:17:29;;;;;;;;;;;5.90;79.80;;;;;;5084690;28;20028;-68
2023/04/02 09:20:00;;;;;;;5.95;3.95;;;5.80;77.90;;;;;;5090254;28;19922;-68
2023/04/02 09:22:30;;;;;;;4.80;3.15;;;5.70;78.20;;;;;;5085693;28;20042;-68
2023/04/02 09:24:58;;;;;;;6.53;3.50;;;5.90;78.90;;;;;;5087323;28;20043;-68
2023/04/02 09:27:27;;;;;;;5.10;3.28;;;5.90;77.80;;;;;;5086572;28;20032;-67
2023/04/02 09:29:59;;;;;;;7.15;3.33;;;5.90;78.10;;;;;;5088419;28;20077;-67
2023/04/02 09:32:51;;;;;;;4.45;3.03;;;6.00;77.10;;;;;;5086959;28;20020;-68
2023/04/02 09:35:17;;;;;;;4.70;3.10;;;6.10;77.00;;;;;;5087982;28;20024;-67
2023/04/02 09:37:43;;;;;;;4.57;2.95;;;6.00;76.80;;;;;;5086987;28;20024;-67
2023/04/02 09:40:16;;;;;;;4.68;2.80;;;6.10;77.40;;;;;;5088032;28;20475;-68
2023/04/02 09:42:42;;;;;;;4.18;2.55;;;6.10;76.80;;;;;;5078869;28;20028;-67
2023/04/02 09:45:20;;;;;;;4.72;2.40;;;6.30;76.80;;;;;;5087598;28;20020;-68
2023/04/02 09:47:48;;;;;;;5.10;2.90;;;6.30;76.50;;;;;;5083373;28;20029;-67
2023/04/02 09:50:27;;;;;;;4.53;2.67;;;6.40;76.20;;;;;;5084521;28;20405;-67
2023/04/02 09:52:53;;;;;;;5.63;2.70;;;6.20;75.10;;;;;;5084473;28;20436;-68
2023/04/02 09:55:29;;;;;;;4.10;2.40;;;6.10;75.60;;;;;;5082673;28;20032;-68
2023/04/02 09:58:15;;;;;;;4.57;2.30;;;6.20;76.20;;;;;;5087866;28;20027;-66
2023/04/02 10:00:51;;;;;;;2.60;2.20;;;6.20;75.80;;;;;;5076340;28;20027;-66
2023/04/02 10:03:25;;;;;;;4.43;2.38;;;6.30;75.90;;;;;;5080796;28;20032;-66
2023/04/02 10:06:11;;;;;;;3.95;2.20;;;6.20;74.70;;;;;;5078368;28;20024;-67
2023/04/02 10:08:38;;;;;;;4.07;2.45;;;6.10;75.20;;;;;;5083212;28;20058;-67
2023/04/02 10:11:30;;;;;;;6.13;2.83;;;6.00;74.60;;;;;;5083370;28;20031;-67
2023/04/02 10:14:14;;;;;;;3.43;2.23;;;5.80;74.40;;;;;;5079646;28;20113;-67
2023/04/02 10:16:50;;;;;;;3.45;2.30;;;5.90;75.30;;;;;;5085684;28;20362;-67
2023/04/02 10:19:30;;;;;;;6.25;2.72;;;6.00;75.00;;;;;;5084682;28;20040;-67
2023/04/02 10:21:59;;;;;;;5.60;2.50;;;6.10;75.20;;;;;;5087981;28;20023;-67
2023/04/02 10:24:27;;;;;;;4.10;2.60;;;6.40;75.00;;;;;;5086157;28;20061;-67
2023/04/02 10:26:58;;;;;;;4.85;2.90;;;6.60;73.70;;;;;;5086459;28;20047;-67
2023/04/02 10:29:49;;;;;;;4.70;3.13;;;6.70;72.50;;;;;;5086757;28;20490;-66
2023/04/02 10:32:25;;;;;;;3.13;2.38;;;6.90;72.00;;;;;;5082310;28;20024;-67
2023/04/02 10:35:14;;;;;;;3.70;2.80;;;7.10;72.20;;;;;;5079883;28;20410;-66
2023/04/02 10:37:59;;;;;;;8.18;3.33;;;7.30;71.80;;;;;;5082125;28;20070;-66
2023/04/02 10:40:35;;;;;;;6.15;3.35;;;7.30;70.30;;;;;;5081793;28;20017;-66
2023/04/02 10:43:22;;;;;;;5.53;3.00;;;7.30;69.50;;;;;;5082072;28;20058;-67
2023/04/02 10:46:12;;;;;;;5.90;3.42;;;7.30;69.20;;;;;;5084577;28;20032;-67
2023/04/02 10:49:04;;;;;;;5.25;2.83;;;7.20;67.50;;;;;;5082149;28;20023;-67
2023/04/02 10:51:54;;;;;;;5.45;3.10;;;7.20;68.00;;;;;;5088940;28;20035;-67
2023/04/02 10:54:36;;;;;;;4.57;3.38;;;7.20;68.00;;;;;;5085759;28;20035;-67
2023/04/02 10:57:18;;;;;;;;;;;7.20;67.30;;;;;;5085229;28;20124;-67
2023/04/02 10:59:51;;;;;;;4.82;2.85;;;7.40;68.30;;;;;;5085131;28;19907;-67
2023/04/02 11:02:45;;;;;;;5.38;2.20;;;7.50;68.20;;;;;;5087132;28;20039;-67
2023/04/02 11:05:22;;;;;;;3.72;2.50;;;7.60;67.00;;;;;;5090560;28;20394;-67
2023/04/02 11:07:54;;;;;;;3.72;2.30;;;7.60;67.10;;;;;;5089383;28;20019;-67
2023/04/02 11:10:20;;;;;;;;;;;7.70;66.40;;;;;;5092356;28;20043;-66
2023/04/02 11:12:53;;;;;;;4.03;2.40;;;7.70;66.80;;;;;;5093647;28;20494;-66
2023/04/02 11:15:19;;;;;;;4.07;2.35;;;7.80;67.10;;;;;;5088283;28;20028;-66
2023/04/02 11:17:46;;;;;;;4.32;2.35;;;7.90;67.00;;;;;;5082158;28;20494;-67
2023/04/02 11:20:48;;;;;;;4.30;2.40;;;8.00;66.30;;;;;;5090688;28;20501;-66
2023/04/02 11:23:18;;;;;;;4.80;2.67;;;8.10;66.50;;;;;;5088649;28;20036;-66
2023/04/02 11:25:44;;;;;;;5.30;2.80;;;8.30;66.90;;;;;;5087274;28;20394;-66
2023/04/02 11:28:17;;;;;;;4.03;2.30;;;8.40;65.20;;;;;;5085837;28;20454;-66
2023/04/02 11:30:46;;;;;;;8.02;2.53;;;8.50;65.20;;;;;;5088527;28;20032;-67
2023/04/02 11:33:33;;;;;;;5.68;2.95;;;8.40;63.20;;;;;;5089413;28;20028;-67
2023/04/02 11:35:58;;;;;;;4.80;2.35;;;8.40;63.50;;;;;;5088499;28;20042;-66
2023/04/02 11:38:24;;;;;;;5.47;2.30;;;8.50;64.10;;;;;;5091094;28;20445;-66
2023/04/02 11:40:50;;;;;;;4.50;2.45;;;8.70;64.20;;;;;;5087637;28;20032;-66
2023/04/02 11:43:34;;;;;;;4.82;2.78;;;8.80;63.80;;;;;;5089242;28;20035;-66
2023/04/02 11:46:15;;;;;;;4.13;2.40;;;8.80;63.30;;;;;;5087534;28;20028;-67
2023/04/02 11:48:41;;;;;;;3.38;2.35;;;8.90;63.70;;;;;;5090354;28;20016;-66
2023/04/02 11:51:22;;;;;;;5.07;2.40;;;9.10;63.90;;;;;;5085160;28;20043;-67
2023/04/02 11:53:49;;;;;;;4.38;2.47;;;9.10;63.10;;;;;;5082206;28;20036;-67
2023/04/02 11:56:50;;;;;;;3.97;2.30;;;9.00;62.40;;;;;;5085895;28;20027;-67
2023/04/02 11:59:26;;;;;;;3.20;2.20;;;9.20;63.20;;;;;;5087494;28;20436;-67
2023/04/02 12:02:13;;;;;;;4.18;2.40;;;9.40;62.50;;;;;;5089120;28;20124;-67
2023/04/02 12:04:55;;;;;;;4.57;2.40;;;9.30;61.50;;;;;;5088721;28;20020;-67
2023/04/02 12:07:45;;;;;;;3.88;2.33;;;9.30;61.10;;;;;;5085504;28;20087;-67
2023/04/02 12:10:20;;;;;;;4.03;2.38;;;9.30;62.20;;;;;;5089573;28;20024;-67
2023/04/02 12:12:47;;;;;;;4.18;2.42;;;9.50;61.70;;;;;;5088906;28;20054;-66
2023/04/02 12:15:31;;;;;;;4.25;2.50;;;9.20;58.80;;;;;;5088583;28;20024;-67
2023/04/02 12:18:15;;;;;;;4.35;2.58;;;9.00;60.20;;;;;;5085825;28;20121;-67
2023/04/02 12:20:46;;;;;;;4.07;2.30;;;9.10;61.10;;;;;;5090641;28;20047;-67
2023/04/02 12:23:34;;;;;;;4.65;2.22;;;9.30;61.60;;;;;;5091622;28;20052;-67
2023/04/02 12:26:21;;;;;;;3.88;2.28;;;9.40;61.70;;;;;;5089515;28;20043;-67
2023/04/02 12:28:47;;;;;;;5.28;2.38;;;9.60;61.20;;;;;;5086703;28;20020;-67
2023/04/02 12:31:17;;;;;;;3.38;1.90;;;9.60;59.80;;;;;;5088738;28;20101;-67
2023/04/02 12:33:43;;;;;;;5.43;2.40;;;9.70;59.70;;;;;;5086921;28;20097;-67
2023/04/02 12:36:15;;;;;;;3.95;2.05;;;9.70;57.70;;;;;;5084029;28;20020;-67
2023/04/02 12:38:56;;;;;;;3.72;1.90;;;9.70;58.70;;;;;;5084084;28;20043;-67
2023/04/02 12:41:32;;;;;;;4.53;2.00;;;9.90;59.60;;;;;;5086895;28;20390;-67
2023/04/02 12:44:10;;;;;;;3.58;1.90;;;10.10;59.50;;;;;;5087994;28;20020;-67
2023/04/02 12:46:38;;;;;;;4.45;2.15;;;10.10;58.00;;;;;;5086622;28;20012;-67
2023/04/02 12:49:07;;;;;;;3.63;1.90;;;10.00;57.40;;;;;;5077696;28;20039;-67
2023/04/02 12:51:35;;;;;;;3.75;2.00;;;10.10;58.10;;;;;;5085682;28;20028;-67
2023/04/02 12:54:00;;;;;;;4.95;1.95;;;10.20;57.20;;;;;;5087515;28;20028;-67
2023/04/02 12:56:26;;;;;;;3.28;1.98;;;10.20;57.10;;;;;;5085186;28;20089;-67
2023/04/02 12:58:57;;;;;;;4.43;2.00;;;10.30;57.60;;;;;;5083588;28;20074;-67
2023/04/02 13:01:28;;;;;;;4.57;2.30;;;10.40;57.20;;;;;;5087021;28;20410;-67
2023/04/02 13:04:05;;;;;;;3.70;2.20;;;10.20;55.60;;;;;;5085652;28;20496;-67
2023/04/02 13:06:32;;;;;;;5.20;2.28;;;10.10;56.20;;;;;;5073733;28;20390;-67
2023/04/02 13:09:00;;;;;;;2.85;1.70;;;10.00;56.10;;;;;;5085119;28;20475;-67
2023/04/02 13:11:36;;;;;;;3.75;1.85;;;9.90;56.10;;;;;;5086514;28;20451;-67
2023/04/02 13:14:05;;;;;;;4.93;2.20;;;10.00;57.20;;;;;;5083996;28;20032;-67
2023/04/02 13:16:39;;;;;;;3.25;1.95;;;9.90;56.00;;;;;;5081975;28;20836;-67
2023/04/02 13:19:32;;;;;;;5.18;2.10;;;10.10;56.90;;;;;;5082950;28;20402;-67
2023/04/02 13:22:00;;;;;;;2.45;1.85;;;10.10;56.00;;;;;;5083492;28;20086;-67
2023/04/02 13:24:28;;;;;;;4.55;2.33;;;10.10;56.80;;;;;;5083239;28;20024;-67
2023/04/02 13:26:57;;;;;;;3.08;1.80;;;10.30;57.00;;;;;;5083795;28;20559;-67
2023/04/02 13:29:28;;;;;;;2.28;1.88;;;10.50;56.90;;;;;;5087953;28;20028;-67
2023/04/02 13:31:57;;;;;;;4.23;2.07;;;10.80;57.20;;;;;;5085179;28;20020;-67
2023/04/02 13:34:23;;;;;;;3.75;2.13;;;10.80;55.80;;;;;;5085123;28;20390;-67